Data for 08/31/2006

Time Sea-Level Adjusted Pressure Absolute Pressure Temperature Relative Humidity Dew Point   
(mb) (inHg) (mb) (inHg) (C) (F) (%) (C) (F)
00:05 1021 30.15 850 25.1 8.2 46.8 82 5.3 41.5
00:10 1021 30.15 850 25.1 8.1 46.5 82 5.1 41.2
00:15 1021 30.15 850 25.1 8.2 46.7 81 5 41
00:20 1021 30.15 850 25.1 8 46.3 81 4.9 40.8
00:25 1021 30.15 850 25.1 8.1 46.5 80 4.9 40.8
00:30 1021 30.15 850 25.1 7.9 46.2 82 5 41.1
00:35 1021 30.15 850 25.1 7.6 45.6 82 4.7 40.4
00:40 1021 30.15 850 25.1 7.6 45.7 81 4.6 40.2
00:45 1021 30.15 850 25.1 7.6 45.8 81 4.7 40.4
00:50 1021 30.15 850 25.1 7.5 45.4 82 4.6 40.3
00:55 1021 30.15 851 25.13 7.6 45.7 82 4.8 40.6
01:00 1021 30.15 851 25.13 7.7 45.9 81 4.7 40.5
01:05 1021 30.15 851 25.13 7.6 45.7 82 4.6 40.4
01:10 1021 30.15 851 25.13 7.4 45.3 83 4.7 40.5
01:15 1021 30.15 851 25.13 7.1 44.8 84 4.6 40.2
01:20 1021 30.15 851 25.13 7.1 44.8 82 4.2 39.6
01:25 1021 30.15 851 25.13 7.1 44.9 82 4.3 39.7
01:30 1021 30.15 851 25.13 7.1 44.8 82 4.2 39.6
01:35 1022 30.18 851 25.13 6.8 44.3 82 3.9 39.1
01:40 1022 30.18 851 25.13 6.9 44.5 81 4 39.1
01:45 1022 30.18 851 25.13 6.9 44.4 81 3.9 39
01:50 1022 30.18 851 25.13 6.9 44.5 81 3.9 38.9
01:55 1022 30.18 851 25.13 6.9 44.4 81 3.9 39
02:00 1022 30.18 851 25.13 6.7 44.1 81 3.6 38.5
02:05 1022 30.18 851 25.13 6.5 43.6 82 3.6 38.5
02:10 1022 30.18 851 25.13 6.1 43 82 3.3 37.9
02:15 1022 30.18 851 25.13 5.9 42.7 81 3 37.4
02:20 1022 30.18 851 25.13 5.8 42.5 80 2.6 36.7
02:25 1022 30.18 851 25.13 5.9 42.7 79 2.5 36.5
02:30 1022 30.18 851 25.13 5.5 41.9 80 2.3 36.2
02:35 1022 30.18 851 25.13 5.3 41.5 80 2.1 35.8
02:40 1022 30.18 851 25.13 5.2 41.4 80 2 35.7
02:45 1022 30.18 851 25.13 5.1 41.3 80 1.9 35.4
02:50 1022 30.18 851 25.13 5.1 41.2 79 1.8 35.2
02:55 1022 30.18 851 25.13 5 41.1 79 1.7 35
03:00 1022 30.18 851 25.13 5.1 41.2 78 1.5 34.7
03:05 1022 30.18 851 25.13 5 41 78 1.4 34.6
03:10 1022 30.18 851 25.13 5 41 77 1.4 34.5
03:15 1022 30.18 851 25.13 5 40.9 77 1.2 34.2
03:20 1022 30.18 851 25.13 5.1 41.1 75 0.9 33.6
03:25 1022 30.18 851 25.13 5.1 41.2 75 1.1 34
03:30 1022 30.18 851 25.13 5 41 75 0.9 33.7
03:35 1022 30.18 851 25.13 5.2 41.3 72 0.5 33
03:40 1022 30.18 851 25.13 5.5 41.9 70 0.5 33
03:45 1022 30.18 851 25.13 5.4 41.8 71 0.7 33.3
03:50 1022 30.18 851 25.13 5.4 41.8 70 0.3 32.6
03:55 1022 30.18 851 25.13 5.3 41.6 72 0.8 33.4
04:00 1022 30.18 851 25.13 5.1 41.2 73 0.7 33.3
04:05 1022 30.18 851 25.13 5 41 74 0.7 33.3
04:10 1022 30.18 851 25.13 4.8 40.6 74 0.6 33.1
04:15 1022 30.18 851 25.13 4.6 40.4 74 0.4 32.7
04:20 1022 30.18 851 25.13 4.7 40.4 74 0.4 32.7
04:25 1022 30.18 851 25.13 4.7 40.5 73 0.2 32.4
04:30 1022 30.18 851 25.13 4.7 40.4 73 0.2 32.3
04:35 1022 30.18 851 25.13 4.5 40.1 73 0.2 32.3
04:40 1022 30.18 851 25.13 4.4 40 76 0.6 33
04:45 1022 30.18 851 25.13 4.3 39.7 75 0.3 32.5
04:50 1022 30.18 851 25.13 4.2 39.5 75 0.2 32.3
04:55 1022 30.18 851 25.13 4.2 39.5 77 0.4 32.8
05:00 1022 30.18 851 25.13 4.2 39.6 72 -0.3 31.4
05:05 1022 30.18 852 25.16 4.4 39.9 73 -0.1 31.8
05:10 1022 30.18 852 25.16 4.2 39.6 72 -0.3 31.4
05:15 1022 30.18 852 25.16 4.3 39.8 71 -0.5 31
05:20 1022 30.18 852 25.16 4.4 40 73 -0 31.9
05:25 1022 30.18 852 25.16 4.1 39.5 75 0 32
05:30 1023 30.21 852 25.16 4.2 39.5 72 -0.4 31.2
05:35 1023 30.21 852 25.16 4.3 39.7 72 -0.4 31.3
05:40 1023 30.21 852 25.16 4.1 39.5 73 -0.2 31.6
05:45 1023 30.21 852 25.16 4.2 39.6 73 -0.2 31.7
05:50 1023 30.21 852 25.16 4.2 39.6 72 -0.3 31.5
05:55 1023 30.21 852 25.16 3.8 38.9 74 -0.4 31.4
06:00 1023 30.21 852 25.16 3.6 38.4 75 -0.4 31.3
06:05 1023 30.21 852 25.16 3.4 38 76 -0.4 31.3
06:10 1023 30.21 852 25.16 3 37.5 78 -0.4 31.2
06:15 1023 30.21 852 25.16 3 37.3 78 -0.4 31.2
06:20 1023 30.21 852 25.16 3.1 37.5 77 -0.6 31
06:25 1023 30.21 852 25.16 3.1 37.7 79 -0.2 31.7
06:30 1023 30.21 852 25.16 3.1 37.5 78 -0.3 31.4
06:35 1023 30.21 852 25.16 3.5 38.2 73 -0.9 30.4
06:40 1023 30.21 852 25.16 3.6 38.6 77 0.1 32.1
06:45 1023 30.21 852 25.16 3.1 37.6 79 -0.3 31.5
06:50 1023 30.21 852 25.16 3.3 37.9 77 -0.4 31.2
06:55 1023 30.21 852 25.16 3.3 38 78 -0.1 31.8
07:00 1023 30.21 852 25.16 3.1 37.5 79 -0.2 31.7
07:05 1023 30.21 852 25.16 3.1 37.6 77 -0.6 31
07:10 1023 30.21 852 25.16 3.4 38.2 73 -1 30.2
07:15 1023 30.21 852 25.16 3.9 38.9 71 -1 30.3
07:20 1023 30.21 853 25.19 3.9 39.1 72 -0.6 31
07:25 1023 30.21 853 25.19 4 39.1 74 -0.3 31.5
07:30 1023 30.21 853 25.19 3.8 38.8 73 -0.6 30.9
07:35 1023 30.21 853 25.19 4.1 39.4 72 -0.6 31
07:40 1023 30.21 853 25.19 4.2 39.6 73 -0.2 31.6
07:45 1023 30.21 853 25.19 4.2 39.6 73 -0.1 31.8
07:50 1023 30.21 853 25.19 4.2 39.6 71 -0.6 30.9
07:55 1023 30.21 853 25.19 4.8 40.7 66 -0.9 30.3
08:00 1023 30.21 853 25.19 5 40.9 68 -0.5 31.2
08:05 1023 30.21 853 25.19 5.1 41.1 69 -0.1 31.7
08:10 1024 30.24 853 25.19 5.2 41.4 69 -0.1 31.8
08:15 1024 30.24 853 25.19 5.5 41.9 69 0.3 32.6
08:20 1024 30.24 853 25.19 5.9 42.6 67 0.2 32.4
08:25 1024 30.24 853 25.19 6.4 43.4 66 0.5 32.9
08:30 1024 30.24 853 25.19 6.9 44.5 63 0.5 32.8
08:35 1024 30.24 853 25.19 7.5 45.5 57 -0.4 31.3
08:40 1024 30.24 853 25.19 8.2 46.7 56 0.1 32.1
08:45 1024 30.24 853 25.19 8.5 47.3 56 0.3 32.5
08:50 1024 30.24 853 25.19 8.9 48 55 0.4 32.8
08:55 1024 30.24 853 25.19 9.3 48.7 57 1.1 34
09:00 1024 30.24 853 25.19 9.5 49.1 56 1.2 34.2
09:05 1024 30.24 853 25.19 9.6 49.3 53 0.7 33.2
09:10 1024 30.24 853 25.19 10.1 50.1 51 0.5 32.8
09:15 1024 30.24 853 25.19 10.5 50.9 51 0.9 33.7
09:20 1024 30.24 853 25.19 10.9 51.6 49 0.8 33.4
09:25 1024 30.24 853 25.19 11.1 52 47 0.4 32.7
09:30 1024 30.24 853 25.19 11.2 52.2 46 0.2 32.4
09:35 1024 30.24 853 25.19 11.3 52.3 47 0.4 32.8
09:40 1024 30.24 853 25.19 11.4 52.4 46 0.2 32.4
09:45 1024 30.24 853 25.19 11.8 53.2 45 0.3 32.5
09:50 1024 30.24 853 25.19 12.3 54.1 44 0.4 32.8
09:55 1024 30.24 853 25.19 12 53.6 48 1.3 34.3
10:00 1024 30.24 853 25.19 11.3 52.4 48 0.9 33.6
10:05 1024 30.24 853 25.19 11.8 53.3 45 0.4 32.7
10:10 1024 30.24 853 25.19 11.7 53 46 0.3 32.6
10:15 1024 30.24 853 25.19 11.7 53 42 -0.7 30.7
10:20 1024 30.24 854 25.22 12.5 54.5 41 -0.5 31.2
10:25 1024 30.24 854 25.22 12.9 55.2 38 -1 30.3
10:30 1024 30.24 854 25.22 12.8 55.1 35 -2.2 28.1
10:35 1024 30.24 854 25.22 12.7 54.8 35 -2.5 27.5
10:40 1024 30.24 854 25.22 12.8 55 33 -2.9 26.9
10:45 1024 30.24 854 25.22 12.7 54.9 33 -3 26.7
10:50 1024 30.24 854 25.22 12.7 54.9 32 -3.3 26
10:55 1024 30.24 854 25.22 13.1 55.7 32 -3.2 26.3
11:00 1024 30.24 854 25.22 13.1 55.6 33 -2.8 26.9
11:05 1024 30.24 854 25.22 13.2 55.8 32 -3 26.6
11:10 1024 30.24 854 25.22 13 55.4 32 -3.3 26.1
11:15 1024 30.24 854 25.22 13.4 56.2 32 -2.8 27
11:20 1024 30.24 854 25.22 13.6 56.5 33 -2.2 28.1
11:25 1024 30.24 854 25.22 13.1 55.6 33 -2.7 27.2
11:30 1024 30.24 854 25.22 13.6 56.5 33 -2.5 27.6
11:35 1024 30.24 854 25.22 14 57.3 32 -2.2 28.1
11:40 1024 30.24 854 25.22 13.7 56.7 33 -2.2 28
11:45 1024 30.24 853 25.19 13.9 57.1 33 -2.2 28
11:50 1024 30.24 853 25.19 14.3 57.8 31 -2.4 27.7
11:55 1024 30.24 853 25.19 14.4 57.9 30 -2.7 27.1
12:00 1024 30.24 853 25.19 14.1 57.4 33 -1.8 28.7
12:05 1024 30.24 853 25.19 14.6 58.4 29 -2.9 26.7
12:10 1024 30.24 853 25.19 15 58.9 29 -2.7 27.2
12:15 1024 30.24 853 25.19 14.8 58.6 30 -2.4 27.7
12:20 1024 30.24 853 25.19 14.3 57.8 30 -3.1 26.4
12:25 1024 30.24 853 25.19 13.7 56.6 32 -2.6 27.2
12:30 1024 30.24 853 25.19 14 57.1 29 -3.6 25.5
12:35 1024 30.24 853 25.19 14.1 57.5 29 -3.4 25.9
12:40 1024 30.24 853 25.19 13.4 56.1 31 -3.3 26
12:45 1024 30.24 853 25.19 14.1 57.5 30 -3 26.6
12:50 1024 30.24 853 25.19 14.1 57.4 31 -2.6 27.3
12:55 1024 30.24 853 25.19 13.4 56.1 33 -2.6 27.3
13:00 1024 30.24 853 25.19 14.6 58.3 30 -2.9 26.8
13:05 1024 30.24 853 25.19 15.3 59.5 30 -2.2 28
13:10 1024 30.24 853 25.19 15.1 59.2 30 -2.4 27.8
13:15 1024 30.24 853 25.19 15.3 59.6 29 -2.7 27.1
13:20 1024 30.24 853 25.19 14.7 58.5 31 -2.1 28.2
13:25 1024 30.24 853 25.19 14.4 57.9 31 -2.6 27.3
13:30 1024 30.24 853 25.19 14.6 58.4 31 -2.2 28
13:35 1024 30.24 853 25.19 14.9 58.8 30 -2.2 28
13:40 1024 30.24 853 25.19 15.1 59.1 30 -2.3 27.8
13:45 1023 30.21 853 25.19 14.7 58.5 30 -2.5 27.6
13:50 1023 30.21 853 25.19 14.5 58.1 31 -2.3 27.9
13:55 1023 30.21 853 25.19 14.3 57.7 31 -2.7 27.1
14:00 1023 30.21 853 25.19 15.3 59.6 30 -2.2 28
14:05 1023 30.21 853 25.19 14.9 58.7 30 -2.4 27.7
14:10 1023 30.21 853 25.19 14.8 58.6 31 -2.3 27.9
14:15 1023 30.21 853 25.19 14.8 58.6 30 -2.5 27.5
14:20 1023 30.21 852 25.16 15.4 59.7 29 -2.3 27.9
14:25 1023 30.21 852 25.16 16.2 61.2 28 -2.2 28.1
14:30 1023 30.21 852 25.16 14.5 58.1 30 -2.7 27.1
14:35 1023 30.21 852 25.16 15.4 59.7 29 -2.4 27.7
14:40 1023 30.21 852 25.16 16.1 61 28 -2.1 28.2
14:45 1023 30.21 852 25.16 15.6 60.1 29 -2.2 28.1
14:50 1023 30.21 852 25.16 15.9 60.7 28 -2.4 27.6
14:55 1023 30.21 852 25.16 15.4 59.8 30 -2.2 28
15:00 1023 30.21 852 25.16 15.8 60.4 29 -2.2 28
15:05 1023 30.21 852 25.16 16.5 61.8 27 -2.7 27.2
15:10 1023 30.21 852 25.16 15.4 59.8 28 -2.7 27.2
15:15 1023 30.21 852 25.16 16.3 61.3 28 -2.1 28.3
15:20 1023 30.21 852 25.16 16.9 62.5 27 -2.1 28.3
15:25 1023 30.21 852 25.16 17.4 63.3 26 -2 28.3
15:30 1023 30.21 852 25.16 16.3 61.3 28 -2.2 28
15:35 1023 30.21 852 25.16 16.5 61.7 28 -1.7 28.9
15:40 1023 30.21 852 25.16 16.6 61.8 28 -2 28.4
15:45 1023 30.21 852 25.16 16.5 61.7 27 -2.6 27.2
15:50 1023 30.21 852 25.16 15.8 60.4 28 -2.4 27.6
15:55 1023 30.21 852 25.16 15.9 60.6 28 -2.4 27.7
16:00 1023 30.21 852 25.16 16.5 61.7 25 -3.3 26.1
16:05 1022 30.18 852 25.16 16.6 61.8 26 -2.8 26.9
16:10 1022 30.18 852 25.16 16.7 62.1 27 -2.4 27.6
16:15 1022 30.18 852 25.16 17 62.7 26 -2.5 27.6
16:20 1022 30.18 852 25.16 16.9 62.4 27 -2.2 28.1
16:25 1022 30.18 852 25.16 16.4 61.5 28 -2.2 28
16:30 1022 30.18 852 25.16 16.2 61.1 26 -3 26.6
16:35 1022 30.18 852 25.16 16.2 61.2 25 -3.5 25.7
16:40 1022 30.18 852 25.16 16 60.8 27 -2.9 26.8
16:45 1022 30.18 852 25.16 16.1 60.9 26 -3.4 25.9
16:50 1022 30.18 852 25.16 16.7 62.1 24 -3.6 25.5
16:55 1022 30.18 852 25.16 15.9 60.7 26 -3.5 25.7
17:00 1022 30.18 852 25.16 16.5 61.6 25 -3.6 25.6
17:05 1022 30.18 852 25.16 16.3 61.4 25 -3.6 25.4
17:10 1022 30.18 852 25.16 16 60.8 24 -4.2 24.4
17:15 1022 30.18 852 25.16 16.5 61.6 24 -4 24.8
17:20 1022 30.18 852 25.16 16.8 62.2 24 -3.9 24.9
17:25 1022 30.18 852 25.16 17.3 63.1 24 -3.4 25.9
17:30 1022 30.18 852 25.16 17.5 63.5 22 -4.3 24.2
17:35 1022 30.18 852 25.16 16.7 62.1 24 -4 24.8
17:40 1022 30.18 852 25.16 17 62.6 23 -4 24.7
17:45 1022 30.18 852 25.16 17.2 63 23 -4.1 24.6
17:50 1022 30.18 852 25.16 17.3 63.2 24 -3.5 25.7
17:55 1022 30.18 852 25.16 17.5 63.6 22 -4.2 24.4
18:00 1022 30.18 852 25.16 17.6 63.7 22 -4.1 24.6
18:05 1022 30.18 852 25.16 17.5 63.5 22 -4.4 24.1
18:10 1022 30.18 852 25.16 17.7 63.8 22 -4 24.9
18:15 1022 30.18 852 25.16 17.7 63.9 22 -4.2 24.4
18:20 1022 30.18 852 25.16 18 64.5 21 -4.7 23.5
18:25 1022 30.18 852 25.16 17.7 63.8 23 -3.6 25.5
18:30 1022 30.18 852 25.16 17.2 62.9 24 -3.6 25.5
18:35 1022 30.18 852 25.16 16.8 62.3 24 -3.9 24.9
18:40 1022 30.18 852 25.16 16.6 61.8 23 -4.3 24.2
18:45 1022 30.18 852 25.16 16.5 61.7 24 -4.2 24.5
18:50 1022 30.18 852 25.16 16.5 61.6 23 -4.6 23.7
18:55 1022 30.18 852 25.16 16.3 61.4 23 -4.9 23.1
19:00 1022 30.18 852 25.16 15.9 60.7 23 -4.9 23.2
19:05 1022 30.18 852 25.16 15.9 60.6 25 -4 24.7
19:10 1023 30.21 852 25.16 16 60.9 25 -3.7 25.3
19:15 1023 30.21 852 25.16 15.9 60.7 25 -3.8 25.1
19:20 1023 30.21 852 25.16 15.8 60.5 26 -3.4 25.9
19:25 1023 30.21 852 25.16 15.7 60.3 26 -3.6 25.5
19:30 1023 30.21 852 25.16 15.6 60.1 27 -3.5 25.8
19:35 1023 30.21 852 25.16 15.3 59.6 27 -3.3 26
19:40 1023 30.21 852 25.16 15.2 59.4 28 -3 26.5
19:45 1023 30.21 852 25.16 15.1 59.2 28 -3.2 26.3
19:50 1023 30.21 852 25.16 15 59 28 -3.3 26.1
19:55 1023 30.21 852 25.16 14.9 58.9 29 -3.1 26.4
20:00 1023 30.21 852 25.16 14.9 58.8 29 -3 26.6
20:05 1023 30.21 852 25.16 14.8 58.6 31 -2 28.4
20:10 1023 30.21 852 25.16 14.5 58.1 29 -3.1 26.3
20:15 1023 30.21 852 25.16 14.4 57.8 29 -3.5 25.7
20:20 1023 30.21 852 25.16 14.2 57.6 29 -3.4 25.9
20:25 1023 30.21 852 25.16 14.1 57.4 30 -3 26.6
20:30 1023 30.21 852 25.16 13.5 56.4 33 -2.5 27.6
20:35 1023 30.21 852 25.16 13 55.3 35 -2.2 28.1
20:40 1023 30.21 853 25.19 12.5 54.5 37 -1.7 29
20:45 1023 30.21 853 25.19 12 53.6 40 -1.2 29.9
20:50 1023 30.21 853 25.19 11.6 52.8 42 -0.9 30.4
20:55 1024 30.24 853 25.19 11 51.8 43 -1 30.2
21:00 1024 30.24 853 25.19 10.8 51.4 42 -1.5 29.4
21:05 1024 30.24 853 25.19 10.8 51.4 42 -1.7 29
21:10 1024 30.24 853 25.19 10.6 51.1 43 -1.3 29.6
21:15 1024 30.24 853 25.19 10.7 51.2 43 -1.2 29.8
21:20 1024 30.24 853 25.19 10.3 50.5 49 -0 32
21:25 1024 30.24 853 25.19 9.8 49.6 48 -0.6 30.8
21:30 1024 30.24 853 25.19 9.9 49.9 48 -0.6 30.9
21:35 1024 30.24 853 25.19 10.1 50.2 46 -0.9 30.4
21:40 1024 30.24 854 25.22 10.2 50.4 46 -0.8 30.6
21:45 1025 30.27 854 25.22 10.6 51 45 -0.7 30.7
21:50 1025 30.27 854 25.22 10.6 51 45 -0.9 30.4
21:55 1025 30.27 854 25.22 10.7 51.2 44 -0.9 30.4
22:00 1025 30.27 854 25.22 10.9 51.6 46 -0.4 31.3
22:05 1025 30.27 854 25.22 10.7 51.3 44 -1.1 30
22:10 1025 30.27 854 25.22 10.6 51 44 -1.3 29.7
22:15 1025 30.27 854 25.22 10.6 51.1 44 -1 30.2
22:20 1025 30.27 854 25.22 10.8 51.4 43 -1.1 30
22:25 1025 30.27 854 25.22 11.1 52 43 -1 30.3
22:30 1025 30.27 854 25.22 11.3 52.3 43 -0.7 30.7
22:35 1025 30.27 855 25.25 10.8 51.5 48 0.3 32.6
22:40 1026 30.3 855 25.25 10 50 48 -0.6 31
22:45 1026 30.3 855 25.25 10.2 50.4 46 -0.8 30.6
22:50 1026 30.3 855 25.25 10.2 50.3 46 -0.8 30.6
22:55 1025 30.27 855 25.25 10 50 46 -1.1 30
23:00 1025 30.27 855 25.25 10.4 50.7 45 -0.9 30.4
23:05 1025 30.27 855 25.25 10.5 50.9 46 -0.7 30.7
23:10 1026 30.3 855 25.25 10.4 50.7 45 -1.1 30.1
23:15 1026 30.3 855 25.25 10.4 50.8 46 -0.7 30.7
23:20 1026 30.3 855 25.25 10.3 50.6 48 -0.2 31.6
23:25 1026 30.3 855 25.25 9.6 49.3 47 -1 30.2
23:30 1026 30.3 855 25.25 9.9 49.8 47 -0.8 30.5
23:35 1026 30.3 855 25.25 9.7 49.4 50 -0.3 31.4
23:40 1026 30.3 855 25.25 9.3 48.8 52 0 32
23:45 1026 30.3 855 25.25 9.2 48.5 53 0.1 32.2
23:50 1026 30.3 855 25.25 9.1 48.3 53 0.1 32.2
23:55 1026 30.3 855 25.25 8.9 48 55 0.3 32.5
24:00 1026 30.3 855 25.25 8.8 47.8 54 0.1 32.2